Time;durP1;ratioP1;P1;durP2;ratioP2;P2;SDS_P1;SDS_P2;PMS_P1;PMS_P2;Temp;Humidity;BMP_temperature;BMP_pressure;BME280_temperature;BME280_humidity;BME280_pressure;Samples;Min_cycle;Max_cycle;Signal;HPM_P1;HPM_P2
2021/12/24 00:01:36;;;;;;;;;;;;;;;-0.42;84.01;97016.91;1702008;82;20254;-83
2021/12/24 00:04:02;;;;;;;;;;;;;;;-0.39;84.17;97003.54;1711153;82;20344;-83
2021/12/24 00:06:28;;;;;;;;;;;;;;;-0.37;84.35;96994.83;1719473;82;25416;-83
2021/12/24 00:08:55;;;;;;;;;;;;;;;-0.35;84.50;96996.05;1712736;82;21873;-84
2021/12/24 00:11:21;;;;;;;;;;;;;;;-0.33;84.67;96987.82;1716346;82;25976;-84
2021/12/24 00:13:50;;;;;;;;;;;;;;;-0.30;84.84;96971.78;1698082;83;24592;-83
2021/12/24 00:16:31;;;;;;;;;;;;;;;-0.26;85.00;96978.42;1700583;83;20809;-84
2021/12/24 00:35:30;;;;;;;;;;;;;;;-0.12;86.11;96937.89;1735448;81;22003;-84
2021/12/24 00:37:47;;;;;;;;;;;;;;;-0.15;86.24;96922.16;1722298;81;26082;-84
2021/12/24 00:40:21;;;;;;;;;;;;;;;-0.13;86.33;96920.80;1728066;81;24574;-84
2021/12/24 00:42:49;;;;;;;;;;;;;;;-0.14;86.46;96917.40;1727558;81;20229;-84
2021/12/24 00:45:17;;;;;;;;;;;;;;;-0.11;86.62;96916.42;1731611;81;25385;-84
2021/12/24 00:47:43;;;;;;;;;;;;;;;-0.12;86.70;96915.59;1736606;81;22098;-85
2021/12/24 00:50:14;;;;;;;;;;;;;;;-0.09;86.85;96919.73;1729102;81;26015;-85
2021/12/24 00:52:47;;;;;;;;;;;;;;;-0.08;86.99;96909.83;1733633;81;24510;-85
2021/12/24 00:55:12;;;;;;;;;;;;;;;-0.09;87.13;96905.59;1725762;81;20392;-85
2021/12/24 00:57:43;;;;;;;;;;;;;;;-0.06;87.29;96908.02;1731789;81;25473;-85
2021/12/24 01:00:11;;;;;;;;;;;;;;;-0.05;87.45;96902.77;1770549;78;22582;-86
2021/12/24 01:02:37;;;;;;;;;;;;;;;-0.05;87.59;96895.05;1788048;78;26080;-85
2021/12/24 01:05:04;;;;;;;;;;;;;;;-0.04;87.74;96897.17;1777459;78;24449;-85
2021/12/24 01:07:30;;;;;;;;;;;;;;;-0.03;87.89;96902.70;1778639;79;20508;-85
2021/12/24 01:10:03;;;;;;;;;;;;;;;0.00;88.02;96905.13;1741389;81;26172;-86
2021/12/24 01:12:29;;;;;;;;;;;;;;;0.02;88.18;96906.31;1730067;81;21952;-85
2021/12/24 01:14:56;;;;;;;;;;;;;;;0.04;88.34;96895.50;1749008;81;26023;-85
2021/12/24 01:20:05;;;;;;;;;;;;;;;0.04;88.60;96889.91;1719358;81;20216;-84
2021/12/24 01:25:08;;;;;;;;;;;;;;;0.06;88.87;96870.52;1737512;80;21572;-84
2021/12/24 01:37:48;;;;;;;;;;;;;;;0.03;89.14;96859.95;1746871;81;24559;-85
2021/12/24 01:38:08;;;;;;;;;;;;;;;0.10;89.56;96856.16;1664638;84;21684;-85
2021/12/24 01:40:52;;;;;;;;;;;;;;;0.06;89.68;96849.94;1707746;81;26767;-85
2021/12/24 01:43:04;;;;;;;;;;;;;;;0.09;89.84;96852.37;1753644;80;24473;-87
2021/12/24 01:45:32;;;;;;;;;;;;;;;0.08;89.93;96848.96;1762707;80;20207;-86
2021/12/24 01:47:59;;;;;;;;;;;;;;;0.07;90.07;96849.03;1750337;80;24810;-85
2021/12/24 01:50:27;;;;;;;;;;;;;;;0.05;90.18;96841.42;1757597;80;22789;-84
2021/12/24 01:52:55;;;;;;;;;;;;;;;0.08;90.32;96848.13;1748600;80;26247;-84
2021/12/24 01:55:22;;;;;;;;;;;;;;;0.06;90.45;96846.92;1750214;80;24612;-84
2021/12/24 01:57:48;;;;;;;;;;;;;;;0.08;90.60;96848.96;1747541;81;20464;-85
2021/12/24 02:00:16;;;;;;;;;;;;;;;0.06;90.73;96844.80;1712207;81;24825;-85
2021/12/24 02:02:43;;;;;;;;;;;;;;;0.03;90.87;96840.66;1717914;82;21991;-86
2021/12/24 02:05:09;;;;;;;;;;;;;;;0.01;90.99;96824.48;1722553;82;26729;-85
2021/12/24 02:07:36;;;;;;;;;;;;;;;-0.01;91.09;96819.89;1727613;82;24457;-85
2021/12/24 02:10:03;;;;;;;;;;;;;;;-0.05;91.20;96815.35;1709136;82;20364;-86
2021/12/24 02:12:32;;;;;;;;;;;;;;;-0.03;91.32;96815.28;1718160;82;24792;-86
2021/12/24 02:14:59;;;;;;;;;;;;;;;-0.04;91.45;96808.47;1717954;82;21737;-86
2021/12/24 02:17:45;;;;;;;;;;;;;;;-0.06;91.56;96797.45;1738147;80;26003;-86
2021/12/24 02:28:29;;;;;;;;;;;;;;;-0.04;92.02;96805.45;1747894;80;22060;-85
2021/12/24 02:30:50;;;;;;;;;;;;;;;-0.03;92.16;96791.69;1755067;80;26583;-86
2021/12/24 02:33:16;;;;;;;;;;;;;;;0.02;92.27;96786.73;1751955;80;24601;-86
2021/12/24 02:35:42;;;;;;;;;;;;;;;0.01;92.39;96764.05;1745687;81;20595;-86
2021/12/24 02:38:11;;;;;;;;;;;;;;;0.02;92.50;96775.17;1727089;81;24690;-85
2021/12/24 02:40:43;;;;;;;;;;;;;;;0.02;92.62;96772.14;1751756;80;22054;-86
2021/12/24 02:43:19;;;;;;;;;;;;;;;0.00;92.70;96767.08;1743028;80;26184;-86
2021/12/24 02:45:52;;;;;;;;;;;;;;;0.02;92.80;96735.31;1751650;81;24411;-85
2021/12/24 02:56:24;;;;;;;;;;;;;;;-0.03;93.16;96724.83;1750841;80;26797;-84
2021/12/24 02:58:48;;;;;;;;;;;;;;;-0.02;93.29;96738.06;1752583;80;24417;-84
2021/12/24 03:01:16;;;;;;;;;;;;;;;0.02;93.38;96738.72;1723884;82;20236;-84
2021/12/24 03:03:48;;;;;;;;;;;;;;;0.04;93.46;96744.61;1745975;80;25564;-84
2021/12/24 03:06:13;;;;;;;;;;;;;;;0.06;93.54;96727.80;1712389;80;22641;-84
2021/12/24 03:08:39;;;;;;;;;;;;;;;0.06;93.65;96727.80;1721498;80;25951;-84
2021/12/24 03:11:05;;;;;;;;;;;;;;;0.10;93.75;96728.85;1686882;83;24409;-84
2021/12/24 03:13:32;;;;;;;;;;;;;;;0.12;93.83;96727.00;1713553;81;20290;-84
2021/12/24 03:15:59;;;;;;;;;;;;;;;0.17;93.94;96734.45;1715428;81;24725;-84
2021/12/24 03:18:28;;;;;;;;;;;;;;;0.20;94.04;96720.98;1738985;80;21611;-85
2021/12/24 03:21:07;;;;;;;;;;;;;;;0.23;94.16;96717.40;1710696;80;26019;-84
2021/12/24 03:23:46;;;;;;;;;;;;;;;0.26;94.22;96732.67;1724234;80;24497;-84
2021/12/24 03:26:11;;;;;;;;;;;;;;;0.26;94.31;96730.94;1717128;82;20318;-84
2021/12/24 03:28:38;;;;;;;;;;;;;;;0.30;94.41;96733.70;1695590;83;24762;-84
2021/12/24 03:31:05;;;;;;;;;;;;;;;0.32;94.48;96725.91;1703581;81;22101;-84
2021/12/24 03:33:31;;;;;;;;;;;;;;;0.31;94.52;96719.09;1760701;80;26058;-84
2021/12/24 03:35:57;;;;;;;;;;;;;;;0.30;94.58;96709.27;1710474;82;24384;-83
2021/12/24 03:38:23;;;;;;;;;;;;;;;0.32;94.62;96716.45;1735116;80;20306;-83
2021/12/24 03:40:49;;;;;;;;;;;;;;;0.34;94.67;96727.46;1726236;81;24769;-84
2021/12/24 03:43:15;;;;;;;;;;;;;;;0.37;94.75;96725.19;1736916;81;21925;-84
2021/12/24 03:45:59;;;;;;;;;;;;;;;0.38;94.81;96701.13;1734999;81;25955;-84
2021/12/24 03:48:21;;;;;;;;;;;;;;;0.40;94.87;96694.95;1694586;82;24373;-84
2021/12/24 03:50:56;;;;;;;;;;;;;;;0.43;94.96;96696.54;1712320;82;20244;-84
2021/12/24 03:55:59;;;;;;;;;;;;;;;0.54;95.18;96688.20;1729954;81;22099;-84
2021/12/24 03:58:25;;;;;;;;;;;;;;;0.61;95.30;96685.16;1734794;81;26173;-84
2021/12/24 04:00:51;;;;;;;;;;;;;;;0.66;95.44;96683.60;1706836;81;24507;-85
2021/12/24 04:03:17;;;;;;;;;;;;;;;0.70;95.56;96677.37;1700435;83;20298;-85
2021/12/24 04:05:46;;;;;;;;;;;;;;;0.74;95.72;96685.28;1693409;83;25634;-84
2021/12/24 04:08:13;;;;;;;;;;;;;;;0.79;95.86;96687.13;1700448;83;22728;-85
2021/12/24 04:10:40;;;;;;;;;;;;;;;0.83;95.98;96664.13;1711548;82;26080;-85
2021/12/24 04:13:07;;;;;;;;;;;;;;;0.84;96.10;96648.60;1712178;82;24416;-85
2021/12/24 04:15:38;;;;;;;;;;;;;;;0.84;96.21;96665.34;1719847;82;20489;-85
2021/12/24 04:18:11;;;;;;;;;;;;;;;0.90;96.33;96685.20;1689424;83;24819;-85
2021/12/24 04:26:00;;;;;;;;;;;;;;;0.95;96.67;96656.97;1688476;83;24654;-86
2021/12/24 04:28:26;;;;;;;;;;;;;;;0.97;96.82;96652.56;1683835;84;20502;-86
2021/12/24 04:30:53;;;;;;;;;;;;;;;0.99;96.94;96642.98;1695185;83;24783;-86
2021/12/24 04:33:31;;;;;;;;;;;;;;;1.02;97.07;96649.71;1712624;83;22070;-85
2021/12/24 04:36:24;;;;;;;;;;;;;;;1.03;97.19;96635.92;1697585;82;26612;-86
2021/12/24 04:52:45;;;;;;;;;;;;;;;1.15;97.89;96626.13;1693598;82;24445;-86
2021/12/24 05:03:07;;;;;;;;;;;;;;;1.19;98.36;96634.06;1731185;82;27564;-87
2021/12/24 05:05:46;;;;;;;;;;;;;;;1.22;98.49;96638.55;1729946;82;24431;-87
2021/12/24 05:10:40;;;;;;;;;;;;;;;1.25;98.72;96626.76;1730412;82;24787;-87
2021/12/24 05:13:07;;;;;;;;;;;;;;;1.29;98.86;96626.13;1732956;82;22111;-87
2021/12/24 05:15:37;;;;;;;;;;;;;;;1.30;98.98;96626.50;1730843;82;25950;-86
2021/12/24 05:18:12;;;;;;;;;;;;;;;1.32;99.11;96633.66;1733443;82;24437;-86
2021/12/24 05:23:15;;;;;;;;;;;;;;;1.38;99.44;96630.70;1733570;82;25844;-87
2021/12/24 05:25:43;;;;;;;;;;;;;;;1.44;99.63;96632.07;1721648;81;22031;-87
2021/12/24 05:28:09;;;;;;;;;;;;;;;1.46;99.80;96636.22;1732526;82;26066;-87
2021/12/24 05:30:37;;;;;;;;;;;;;;;1.49;99.99;96639.87;1699946;82;20202;-86
2021/12/24 05:33:03;;;;;;;;;;;;;;;1.50;100.00;96636.84;1747185;81;20228;-86
2021/12/24 05:35:34;;;;;;;;;;;;;;;1.50;100.00;96637.67;1752647;80;24716;-86
2021/12/24 05:37:58;;;;;;;;;;;;;;;1.52;100.00;96638.42;1743060;81;22609;-87
2021/12/24 05:40:24;;;;;;;;;;;;;;;1.53;100.00;96641.80;1748394;81;26062;-86
2021/12/24 05:42:50;;;;;;;;;;;;;;;1.54;100.00;96639.13;1734234;81;24427;-87
2021/12/24 05:45:16;;;;;;;;;;;;;;;1.56;100.00;96637.76;1744262;81;20330;-86
2021/12/24 05:47:42;;;;;;;;;;;;;;;1.54;100.00;96636.55;1740180;82;24726;-86
2021/12/24 05:50:09;;;;;;;;;;;;;;;1.56;100.00;96635.17;1751614;81;22031;-86
2021/12/24 05:52:35;;;;;;;;;;;;;;;1.58;100.00;96635.92;1755853;80;26067;-86
2021/12/24 05:55:01;;;;;;;;;;;;;;;1.60;100.00;96634.05;1759574;81;24471;-86
2021/12/24 05:57:28;;;;;;;;;;;;;;;1.58;100.00;96632.85;1756607;80;20294;-86
2021/12/24 05:59:54;;;;;;;;;;;;;;;1.60;100.00;96639.20;1757161;81;24832;-86
2021/12/24 06:02:20;;;;;;;;;;;;;;;1.64;100.00;96639.37;1754634;80;22017;-86
2021/12/24 06:04:46;;;;;;;;;;;;;;;1.65;100.00;96633.30;1735757;81;26082;-86
2021/12/24 06:07:12;;;;;;;;;;;;;;;1.68;100.00;96632.66;1727435;81;24153;-86
2021/12/24 06:09:39;;;;;;;;;;;;;;;1.72;100.00;96622.97;1749707;80;20229;-86
2021/12/24 06:12:05;;;;;;;;;;;;;;;1.78;100.00;96629.49;1744790;81;24776;-86
2021/12/24 06:14:31;;;;;;;;;;;;;;;1.84;100.00;96631.23;1749033;80;21581;-86
2021/12/24 06:17:13;;;;;;;;;;;;;;;1.90;100.00;96625.67;1746360;80;25936;-86
2021/12/24 06:19:34;;;;;;;;;;;;;;;1.96;100.00;96619.30;1755478;80;25946;-86
2021/12/24 06:22:01;;;;;;;;;;;;;;;2.01;100.00;96628.39;1754899;80;20444;-86
2021/12/24 06:24:29;;;;;;;;;;;;;;;2.09;100.00;96626.13;1748442;80;25781;-86
2021/12/24 06:26:55;;;;;;;;;;;;;;;2.20;100.00;96624.14;1753604;80;22101;-86
2021/12/24 06:29:21;;;;;;;;;;;;;;;2.30;100.00;96620.48;1748425;80;26048;-86
2021/12/24 06:31:48;;;;;;;;;;;;;;;2.38;100.00;96619.53;1742489;80;24620;-86
2021/12/24 06:34:14;;;;;;;;;;;;;;;2.48;100.00;96628.31;1755780;79;20256;-86
2021/12/24 06:36:43;;;;;;;;;;;;;;;2.55;100.00;96618.41;1754571;80;25445;-86
2021/12/24 06:39:10;;;;;;;;;;;;;;;2.60;100.00;96612.47;1752240;81;22142;-86
2021/12/24 06:41:39;;;;;;;;;;;;;;;2.64;100.00;96624.23;1755293;80;26848;-86
2021/12/24 06:44:10;;;;;;;;;;;;;;;2.70;100.00;96631.11;1731449;81;22354;-86
2021/12/24 06:46:34;;;;;;;;;;;;;;;2.77;100.00;96625.91;1744629;81;20224;-86
2021/12/24 06:49:07;;;;;;;;;;;;;;;2.81;100.00;96624.76;1743437;80;24715;-86
2021/12/24 06:51:33;;;;;;;;;;;;;;;2.92;100.00;96626.61;1747831;81;21948;-86
2021/12/24 06:53:59;;;;;;;;;;;;;;;3.04;100.00;96635.28;1746700;81;26031;-86
2021/12/24 06:56:25;;;;;;;;;;;;;;;3.13;100.00;96637.23;1746899;81;24504;-86
2021/12/24 06:58:52;;;;;;;;;;;;;;;3.18;100.00;96637.73;1746478;81;20288;-86
2021/12/24 07:01:18;;;;;;;;;;;;;;;3.24;100.00;96632.14;1753320;80;24869;-86
2021/12/24 07:03:47;;;;;;;;;;;;;;;3.30;100.00;96634.31;1747652;81;22009;-86
2021/12/24 07:06:13;;;;;;;;;;;;;;;3.37;100.00;96630.38;1746896;81;26031;-86
2021/12/24 07:08:39;;;;;;;;;;;;;;;3.46;100.00;96636.18;1741595;81;24397;-86
2021/12/24 07:11:05;;;;;;;;;;;;;;;3.54;100.00;96635.66;1749990;81;20232;-86
2021/12/24 07:13:31;;;;;;;;;;;;;;;3.58;100.00;96640.96;1750017;81;24901;-86
2021/12/24 07:15:58;;;;;;;;;;;;;;;3.60;100.00;96646.86;1746954;81;22633;-87
2021/12/24 07:18:25;;;;;;;;;;;;;;;3.61;100.00;96641.56;1740761;81;26083;-86
2021/12/24 07:20:51;;;;;;;;;;;;;;;3.61;100.00;96636.85;1735671;81;24446;-87
2021/12/24 07:23:18;;;;;;;;;;;;;;;3.59;100.00;96642.16;1740641;81;20366;-87
2021/12/24 07:25:45;;;;;;;;;;;;;;;3.60;100.00;96648.95;1741370;81;24719;-88
2021/12/24 07:28:11;;;;;;;;;;;;;;;3.61;100.00;96652.38;1750605;81;22108;-87
2021/12/24 07:30:38;;;;;;;;;;;;;;;3.59;100.00;96647.79;1746532;81;25998;-87
2021/12/24 07:33:04;;;;;;;;;;;;;;;3.60;100.00;96645.57;1739119;81;24484;-87
2021/12/24 07:35:30;;;;;;;;;;;;;;;3.61;100.00;96646.73;1736812;81;20228;-88
2021/12/24 07:37:56;;;;;;;;;;;;;;;3.62;100.00;96646.27;1744550;81;25021;-87
2021/12/24 07:40:25;;;;;;;;;;;;;;;3.63;100.00;96640.17;1733619;81;21890;-87
2021/12/24 07:42:50;;;;;;;;;;;;;;;3.64;100.00;96643.12;1744497;81;26115;-87
2021/12/24 07:45:17;;;;;;;;;;;;;;;3.66;100.00;96652.41;1734817;81;24480;-87
2021/12/24 07:47:44;;;;;;;;;;;;;;;3.68;100.00;96646.67;1735797;81;20553;-87
2021/12/24 07:52:43;;;;;;;;;;;;;;;3.72;100.00;96633.87;1716366;81;22140;-87
2021/12/24 07:55:10;;;;;;;;;;;;;;;3.76;100.00;96638.38;1731005;81;27059;-87
2021/12/24 07:57:37;;;;;;;;;;;;;;;3.76;100.00;96626.23;1741023;81;23906;-88
2021/12/24 08:00:05;;;;;;;;;;;;;;;3.78;100.00;96631.31;1734660;81;20243;-88
2021/12/24 08:02:32;;;;;;;;;;;;;;;3.79;100.00;96623.45;1745190;80;24731;-88
2021/12/24 08:04:58;;;;;;;;;;;;;;;3.79;100.00;96632.97;1747622;80;22164;-88
2021/12/24 08:07:24;;;;;;;;;;;;;;;3.80;100.00;96628.16;1748117;80;26691;-88
2021/12/24 08:09:51;;;;;;;;;;;;;;;3.79;100.00;96638.97;1749815;80;24426;-88
2021/12/24 08:12:18;;;;;;;;;;;;;;;3.80;100.00;96641.09;1754067;80;20491;-88
2021/12/24 08:14:45;;;;;;;;;;;;;;;3.81;100.00;96637.58;1743944;80;24949;-88
2021/12/24 08:17:11;;;;;;;;;;;;;;;3.80;100.00;96637.21;1751248;80;21397;-88
2021/12/24 08:19:37;;;;;;;;;;;;;;;3.79;100.00;96635.55;1749138;80;26054;-88
2021/12/24 08:22:04;;;;;;;;;;;;;;;3.79;100.00;96627.80;1748435;80;24441;-88
2021/12/24 08:24:30;;;;;;;;;;;;;;;3.82;100.00;96622.88;1750052;80;20612;-88
2021/12/24 08:26:57;;;;;;;;;;;;;;;3.86;100.00;96624.30;1746269;80;24722;-87
2021/12/24 08:29:23;;;;;;;;;;;;;;;3.87;100.00;96615.15;1705239;81;22165;-87
2021/12/24 08:31:50;;;;;;;;;;;;;;;3.90;100.00;96595.50;1752298;80;26626;-87
2021/12/24 08:34:18;;;;;;;;;;;;;;;3.93;100.00;96610.00;1749277;80;24639;-88
2021/12/24 08:36:45;;;;;;;;;;;;;;;3.94;100.00;96617.63;1750285;80;20217;-87
2021/12/24 08:39:11;;;;;;;;;;;;;;;3.97;100.00;96624.36;1747657;80;24729;-88
2021/12/24 08:41:37;;;;;;;;;;;;;;;4.00;100.00;96618.95;1744727;80;22074;-87
2021/12/24 08:44:03;;;;;;;;;;;;;;;4.01;100.00;96612.84;1722327;81;25948;-87
2021/12/24 08:46:29;;;;;;;;;;;;;;;4.03;100.00;96604.51;1750608;80;24425;-87
2021/12/24 08:48:57;;;;;;;;;;;;;;;4.08;100.00;96607.12;1748952;80;20287;-87
2021/12/24 08:51:24;;;;;;;;;;;;;;;4.14;100.00;96608.44;1748361;80;25017;-87
2021/12/24 08:53:51;;;;;;;;;;;;;;;4.20;100.00;96602.78;1753751;80;21958;-87
2021/12/24 08:56:17;;;;;;;;;;;;;;;4.26;100.00;96604.09;1753770;80;25977;-87
2021/12/24 08:58:43;;;;;;;;;;;;;;;4.23;100.00;96601.74;1752939;80;24482;-87
2021/12/24 09:01:09;;;;;;;;;;;;;;;4.34;100.00;96609.08;1754467;80;20294;-87
2021/12/24 09:03:37;;;;;;;;;;;;;;;4.38;100.00;96597.55;1760135;80;25451;-87
2021/12/24 09:06:03;;;;;;;;;;;;;;;4.40;100.00;96588.38;1760972;80;22049;-87
2021/12/24 09:08:29;;;;;;;;;;;;;;;4.44;100.00;96594.97;1754297;80;25973;-88
2021/12/24 09:10:55;;;;;;;;;;;;;;;4.50;100.00;96603.11;1758411;80;24664;-89
2021/12/24 09:13:21;;;;;;;;;;;;;;;4.55;100.00;96599.70;1754049;80;20802;-88
2021/12/24 09:15:48;;;;;;;;;;;;;;;4.60;100.00;96592.41;1751051;80;24704;-87
2021/12/24 09:18:14;;;;;;;;;;;;;;;4.65;100.00;96593.35;1754680;80;22066;-87
2021/12/24 09:20:43;;;;;;;;;;;;;;;4.69;100.00;96575.83;1730094;80;25995;-87
2021/12/24 09:23:09;;;;;;;;;;;;;;;4.74;100.00;96584.91;1751837;80;25355;-87
2021/12/24 09:25:35;;;;;;;;;;;;;;;4.76;100.00;96582.17;1767502;80;20236;-87
2021/12/24 09:28:01;;;;;;;;;;;;;;;4.84;100.00;96586.31;1751396;80;24695;-87
2021/12/24 09:30:28;;;;;;;;;;;;;;;4.88;100.00;96584.66;1757638;80;21956;-88
2021/12/24 09:32:54;;;;;;;;;;;;;;;4.92;100.00;96589.13;1755401;80;25996;-87
2021/12/24 09:35:21;;;;;;;;;;;;;;;4.95;100.00;96583.73;1750213;80;25003;-88
2021/12/24 09:37:48;;;;;;;;;;;;;;;4.95;100.00;96585.02;1755350;80;20633;-87
2021/12/24 09:40:14;;;;;;;;;;;;;;;4.96;100.00;96575.81;1760168;80;24781;-87
2021/12/24 09:42:41;;;;;;;;;;;;;;;5.00;100.00;96586.32;1758068;80;21947;-87
2021/12/24 09:45:08;;;;;;;;;;;;;;;5.03;100.00;96586.54;1758668;80;25964;-87
2021/12/24 09:47:34;;;;;;;;;;;;;;;5.06;100.00;96588.91;1750993;80;24491;-87
2021/12/24 09:50:01;;;;;;;;;;;;;;;5.10;100.00;96584.30;1746850;80;20213;-87
2021/12/24 09:52:27;;;;;;;;;;;;;;;5.11;100.00;96571.23;1746954;80;24807;-87
2021/12/24 09:54:53;;;;;;;;;;;;;;;5.13;100.00;96569.33;1758440;80;22687;-87
2021/12/24 09:57:20;;;;;;;;;;;;;;;5.16;100.00;96564.38;1760555;80;26184;-87
2021/12/24 09:59:46;;;;;;;;;;;;;;;5.19;100.00;96569.32;1757761;80;24463;-87
2021/12/24 10:02:19;;;;;;;;;;;;;;;5.19;100.00;96558.95;1756273;80;20153;-87
2021/12/24 10:04:45;;;;;;;;;;;;;;;5.18;100.00;96555.56;1757801;80;24817;-86
2021/12/24 10:07:12;;;;;;;;;;;;;;;5.24;100.00;96547.27;1750847;80;22039;-86
2021/12/24 10:09:42;;;;;;;;;;;;;;;5.27;100.00;96545.75;1760898;80;26013;-87
2021/12/24 10:12:09;;;;;;;;;;;;;;;5.30;100.00;96543.38;1754376;80;24444;-87
2021/12/24 10:14:40;;;;;;;;;;;;;;;5.30;100.00;96537.72;1755852;80;20214;-87
2021/12/24 10:17:17;;;;;;;;;;;;;;;5.31;100.00;96539.37;1758708;80;24754;-87
2021/12/24 10:19:44;;;;;;;;;;;;;;;5.30;100.00;96539.48;1706828;83;22071;-87
2021/12/24 10:22:11;;;;;;;;;;;;;;;5.33;100.00;96540.08;1752422;80;25997;-87
2021/12/24 10:24:37;;;;;;;;;;;;;;;5.34;100.00;96539.61;1756892;80;24456;-87
2021/12/24 10:27:04;;;;;;;;;;;;;;;5.32;100.00;96537.60;1751606;80;20468;-87
2021/12/24 10:29:38;;;;;;;;;;;;;;;5.29;100.00;96551.62;1755675;80;25023;-87
2021/12/24 10:32:12;;;;;;;;;;;;;;;5.23;100.00;96548.24;1755651;80;22077;-87
2021/12/24 10:34:39;;;;;;;;;;;;;;;5.16;100.00;96542.34;1697251;82;26068;-86
2021/12/24 10:37:07;;;;;;;;;;;;;;;5.10;100.00;96543.65;1719826;81;24650;-87
2021/12/24 10:39:52;;;;;;;;;;;;;;;5.05;100.00;96549.67;1730422;81;20279;-88
2021/12/24 10:42:19;;;;;;;;;;;;;;;5.01;100.00;96554.28;1727816;81;25673;-87
2021/12/24 10:44:47;;;;;;;;;;;;;;;4.95;100.00;96559.11;1690621;83;22603;-87
2021/12/24 10:47:17;;;;;;;;;;;;;;;4.92;100.00;96568.39;1681680;83;26066;-87
2021/12/24 10:49:56;;;;;;;;;;;;;;;4.87;100.00;96571.81;1698063;81;24575;-87
2021/12/24 10:54:51;;;;;;;;;;;;;;;4.82;100.00;96547.55;1718741;81;24921;-87
2021/12/24 10:57:22;;;;;;;;;;;;;;;4.80;100.00;96553.31;1716162;81;21994;-87
2021/12/24 10:59:49;;;;;;;;;;;;;;;4.79;100.00;96539.20;1714867;81;26037;-87
2021/12/24 11:02:15;;;;;;;;;;;;;;;4.79;100.00;96535.31;1718855;81;24462;-87
2021/12/24 11:04:41;;;;;;;;;;;;;;;4.81;100.00;96529.52;1721307;82;20307;-87
2021/12/24 11:07:26;;;;;;;;;;;;;;;4.86;100.00;96537.77;1734708;82;24740;-88
2021/12/24 11:10:05;;;;;;;;;;;;;;;4.87;100.00;96533.77;1734352;82;22103;-87
2021/12/24 11:12:35;;;;;;;;;;;;;;;4.88;100.00;96532.83;1731919;82;26187;-87
2021/12/24 11:15:01;;;;;;;;;;;;;;;4.89;100.00;96526.70;1732343;82;24504;-87
2021/12/24 11:17:40;;;;;;;;;;;;;;;4.89;100.00;96527.18;1724996;82;20235;-87
2021/12/24 11:20:10;;;;;;;;;;;;;;;4.92;100.00;96517.86;1732147;82;24768;-87
2021/12/24 11:22:56;;;;;;;;;;;;;;;4.99;100.00;96517.27;1729022;82;22014;-87
2021/12/24 11:25:23;;;;;;;;;;;;;;;5.11;100.00;96516.78;1708745;82;26071;-87
2021/12/24 11:27:50;;;;;;;;;;;;;;;5.25;100.00;96515.22;1690317;83;24751;-87
2021/12/24 11:30:16;;;;;;;;;;;;;;;5.36;100.00;96501.39;1700163;82;20486;-87
2021/12/24 11:32:43;;;;;;;;;;;;;;;5.45;100.00;96501.97;1730487;82;24828;-87
2021/12/24 11:35:10;;;;;;;;;;;;;;;5.54;100.00;96497.33;1732509;82;22596;-87
2021/12/24 11:37:46;;;;;;;;;;;;;;;5.59;100.00;96500.38;1732908;82;26701;-87
2021/12/24 11:40:14;;;;;;;;;;;;;;;5.67;100.00;96498.47;1726346;82;24514;-87
2021/12/24 11:42:42;;;;;;;;;;;;;;;5.76;100.00;96493.35;1731206;82;20276;-87
2021/12/24 11:45:08;;;;;;;;;;;;;;;5.84;100.00;96490.94;1724555;82;24819;-87
2021/12/24 11:47:34;;;;;;;;;;;;;;;5.91;100.00;96488.70;1723064;82;21816;-87
2021/12/24 11:50:01;;;;;;;;;;;;;;;5.99;100.00;96495.40;1728547;82;26077;-88
2021/12/24 11:52:27;;;;;;;;;;;;;;;6.04;100.00;96493.24;1726477;82;24430;-88
2021/12/24 11:54:55;;;;;;;;;;;;;;;6.05;100.00;96491.47;1728618;82;20559;-87
2021/12/24 11:57:26;;;;;;;;;;;;;;;6.08;100.00;96484.24;1722124;82;24762;-87
2021/12/24 11:59:55;;;;;;;;;;;;;;;6.11;100.00;96477.98;1721840;82;22765;-87
2021/12/24 12:02:34;;;;;;;;;;;;;;;6.14;100.00;96476.42;1706028;82;26184;-87
2021/12/24 12:05:22;;;;;;;;;;;;;;;6.16;100.00;96475.35;1721092;81;24568;-87
2021/12/24 12:07:48;;;;;;;;;;;;;;;6.19;100.00;96476.85;1729628;81;20247;-87
2021/12/24 12:10:16;;;;;;;;;;;;;;;6.21;100.00;96462.80;1726752;81;24749;-87
2021/12/24 12:12:42;;;;;;;;;;;;;;;6.22;100.00;96461.83;1714431;81;22017;-86
2021/12/24 12:15:29;;;;;;;;;;;;;;;6.26;100.00;96452.84;1724078;81;25977;-87
2021/12/24 12:17:58;;;;;;;;;;;;;;;6.29;100.00;96459.55;1723223;81;24776;-87
2021/12/24 12:20:49;;;;;;;;;;;;;;;6.30;100.00;96476.31;1719565;81;20341;-87
2021/12/24 12:23:32;;;;;;;;;;;;;;;6.33;100.00;96485.60;1723524;81;24788;-88
2021/12/24 12:25:58;;;;;;;;;;;;;;;6.33;100.00;96492.09;1723061;81;21976;-87
2021/12/24 12:28:26;;;;;;;;;;;;;;;6.34;100.00;96485.13;1723432;81;25988;-87
2021/12/24 12:30:54;;;;;;;;;;;;;;;6.37;100.00;96483.59;1728537;81;25957;-87
2021/12/24 12:33:24;;;;;;;;;;;;;;;6.36;100.00;96475.44;1720693;81;20194;-87
2021/12/24 12:35:54;;;;;;;;;;;;;;;6.39;100.00;96480.37;1728589;81;25562;-87
2021/12/24 12:38:25;;;;;;;;;;;;;;;6.40;100.00;96490.64;1722603;81;21945;-86
2021/12/24 12:40:53;;;;;;;;;;;;;;;6.42;100.00;96490.05;1720761;81;26102;-88
2021/12/24 12:43:20;;;;;;;;;;;;;;;6.43;100.00;96496.89;1739767;81;24402;-87
2021/12/24 12:45:48;;;;;;;;;;;;;;;6.44;100.00;96495.09;1723050;81;20503;-88
2021/12/24 12:48:24;;;;;;;;;;;;;;;6.47;100.00;96507.37;1728130;81;25491;-87
2021/12/24 12:50:51;;;;;;;;;;;;;;;6.46;100.00;96504.89;1720973;81;22003;-87
2021/12/24 12:53:28;;;;;;;;;;;;;;;6.46;100.00;96506.19;1688541;81;26608;-88
2021/12/24 12:56:17;;;;;;;;;;;;;;;6.45;100.00;96500.16;1723974;81;24450;-87
2021/12/24 12:58:42;;;;;;;;;;;;;;;6.46;100.00;96501.81;1763066;81;20252;-87
2021/12/24 13:01:11;;;;;;;;;;;;;;;6.48;100.00;96493.91;1755815;80;24915;-88
2021/12/24 13:03:57;;;;;;;;;;;;;;;6.50;100.00;96486.78;1747465;81;21995;-87
2021/12/24 13:06:24;;;;;;;;;;;;;;;6.51;100.00;96481.94;1751338;80;26507;-87
2021/12/24 13:08:51;;;;;;;;;;;;;;;6.53;100.00;96491.73;1764085;81;24443;-87
2021/12/24 13:11:20;;;;;;;;;;;;;;;6.54;100.00;96489.49;1753867;80;20350;-87
2021/12/24 13:13:57;;;;;;;;;;;;;;;6.56;100.00;96494.06;1751951;80;24755;-87
2021/12/24 13:16:34;;;;;;;;;;;;;;;6.58;100.00;96499.96;1752590;80;22054;-87
2021/12/24 13:19:21;;;;;;;;;;;;;;;6.59;100.00;96493.34;1753903;80;26649;-87
2021/12/24 13:24:15;;;;;;;;;;;;;;;6.64;100.00;96495.55;1750905;81;20261;-87
2021/12/24 13:26:50;;;;;;;;;;;;;;;6.66;100.00;96496.22;1746464;80;25387;-88
2021/12/24 13:29:14;;;;;;;;;;;;;;;6.68;100.00;96497.75;1742903;80;21987;-87
2021/12/24 13:31:41;;;;;;;;;;;;;;;6.72;100.00;96504.33;1745283;81;25923;-86
2021/12/24 13:34:11;;;;;;;;;;;;;;;6.74;100.00;96501.61;1753221;81;24496;-87
2021/12/24 13:36:39;;;;;;;;;;;;;;;6.72;100.00;96500.43;1753305;81;21141;-87
2021/12/24 13:39:06;;;;;;;;;;;;;;;6.75;100.00;96516.73;1751908;81;24728;-87
2021/12/24 13:41:32;;;;;;;;;;;;;;;6.75;100.00;96509.75;1749307;81;21935;-86
2021/12/24 13:43:58;;;;;;;;;;;;;;;6.74;100.00;96514.60;1748443;81;26023;-86
2021/12/24 13:46:26;;;;;;;;;;;;;;;6.73;100.00;96525.47;1747322;81;24618;-86
2021/12/24 13:49:15;;;;;;;;;;;;;;;6.72;100.00;96530.32;1757409;80;20415;-86
2021/12/24 13:56:42;;;;;;;;;;;;;;;6.67;100.00;96520.80;1758958;80;26120;-86
2021/12/24 13:59:10;;;;;;;;;;;;;;;6.69;100.00;96518.07;1754806;80;24535;-87
2021/12/24 14:01:38;;;;;;;;;;;;;;;6.69;100.00;96517.59;1761971;81;20272;-86
2021/12/24 14:04:05;;;;;;;;;;;;;;;6.68;100.00;96512.05;1737855;80;24796;-87
2021/12/24 14:06:33;;;;;;;;;;;;;;;6.70;100.00;96539.22;1712172;82;22107;-87
2021/12/24 14:09:16;;;;;;;;;;;;;;;6.72;100.00;96538.59;1718538;82;26013;-89
2021/12/24 14:11:43;;;;;;;;;;;;;;;6.70;100.00;96523.63;1713126;82;25300;-86
2021/12/24 14:14:17;;;;;;;;;;;;;;;6.73;100.00;96520.75;1717441;82;20325;-87
2021/12/24 14:19:13;;;;;;;;;;;;;;;6.70;100.00;96522.32;1712594;82;22019;-87
2021/12/24 14:21:45;;;;;;;;;;;;;;;6.71;100.00;96533.05;1686779;83;26045;-86
2021/12/24 14:24:13;;;;;;;;;;;;;;;6.70;100.00;96540.52;1718738;82;24422;-85
2021/12/24 14:26:44;;;;;;;;;;;;;;;6.68;100.00;96532.84;1719347;82;20166;-86
2021/12/24 14:29:11;;;;;;;;;;;;;;;6.66;100.00;96530.02;1712686;82;25452;-87
2021/12/24 14:31:38;;;;;;;;;;;;;;;6.67;100.00;96543.36;1713378;82;22027;-84